Time;durP1;ratioP1;P1;durP2;ratioP2;P2;SDS_P1;SDS_P2;PMS_P1;PMS_P2;Temp;Humidity;BMP_temperature;BMP_pressure;BME280_temperature;BME280_humidity;BME280_pressure;Samples;Min_cycle;Max_cycle;Signal;HPM_P1;HPM_P2
2022/02/06 00:01:52;;;;;;;100.03;50.70;;;;;;;;;;4953631;28;20105;-46
2022/02/06 00:04:18;;;;;;;92.22;48.35;;;;;;;;;;4952724;28;20623;-47
2022/02/06 00:06:44;;;;;;;79.47;41.45;;;;;;;;;;4954099;28;20070;-45
2022/02/06 00:09:11;;;;;;;98.68;47.60;;;;;;;;;;4954222;28;20035;-47
2022/02/06 00:11:37;;;;;;;97.53;49.40;;;;;;;;;;4953998;28;20034;-45
2022/02/06 00:14:03;;;;;;;88.22;44.28;;;;;;;;;;4930755;28;20097;-45
2022/02/06 00:16:31;;;;;;;79.30;41.10;;;;;;;;;;4942712;28;20485;-46
2022/02/06 00:18:57;;;;;;;80.75;39.50;;;;;;;;;;4941744;28;20086;-47
2022/02/06 00:21:23;;;;;;;86.13;45.92;;;;;;;;;;4984397;28;20059;-45
2022/02/06 00:23:53;;;;;;;90.80;47.47;;;;;;;;;;5020859;28;20041;-46
2022/02/06 00:26:52;;;;;;;99.35;52.78;;;;;;;;;;5020746;28;20026;-44
2022/02/06 00:32:20;;;;;;;86.90;47.17;;;;;;;;;;5012452;28;20033;-45
2022/02/06 00:40:33;;;;;;;61.85;33.47;;;;;;;;;;4935029;29;20047;-46
2022/02/06 00:42:59;;;;;;;55.50;29.23;;;;;;;;;;4934152;29;20031;-45
2022/02/06 00:45:25;;;;;;;50.15;26.02;;;;;;;;;;4934603;28;20027;-46
2022/02/06 00:47:51;;;;;;;56.00;28.20;;;;;;;;;;4934344;29;20430;-45
2022/02/06 00:50:18;;;;;;;49.15;24.25;;;;;;;;;;4934365;28;20377;-46
2022/02/06 00:52:54;;;;;;;53.97;29.52;;;;;;;;;;4917648;29;20145;-46
2022/02/06 00:55:20;;;;;;;49.97;21.95;;;;;;;;;;4932963;29;20071;-47
2022/02/06 00:57:46;;;;;;;37.92;20.98;;;;;;;;;;4934459;28;20438;-45
2022/02/06 01:00:12;;;;;;;54.67;28.98;;;;;;;;;;4934252;29;20170;-45
2022/02/06 01:02:40;;;;;;;56.83;30.00;;;;;;;;;;4934428;29;20036;-44
2022/02/06 01:05:07;;;;;;;48.47;26.17;;;;;;;;;;4935581;28;20027;-47
2022/02/06 01:07:33;;;;;;;49.10;26.20;;;;;;;;;;4943818;28;20035;-44
2022/02/06 01:09:59;;;;;;;41.95;22.20;;;;;;;;;;4939124;28;20427;-44
2022/02/06 01:12:31;;;;;;;38.53;21.63;;;;;;;;;;4943870;28;20067;-43
2022/02/06 01:23:01;;;;;;;39.30;17.30;;;;;;;;;;5015237;28;20264;-44
2022/02/06 01:25:36;;;;;;;46.08;22.55;;;;;;;;;;5015519;28;20757;-44
2022/02/06 01:28:07;;;;;;;36.05;17.40;;;;;;;;;;5014346;28;20508;-45
2022/02/06 01:31:05;;;;;;;35.75;17.90;;;;;;;;;;5015722;28;20041;-44
2022/02/06 01:33:37;;;;;;;31.95;16.98;;;;;;;;;;5015426;28;20446;-44
2022/02/06 01:37:08;;;;;;;;;;;;;;;;;;5014545;28;20028;-44
2022/02/06 01:39:12;;;;;;;31.83;17.30;;;;;;;;;;5010803;28;19913;-44
2022/02/06 01:41:42;;;;;;;42.00;21.58;;;;;;;;;;5015072;28;20108;-44
2022/02/06 01:44:18;;;;;;;46.15;23.92;;;;;;;;;;5015517;28;20029;-45
2022/02/06 02:00:57;;;;;;;29.42;16.23;;;;;;;;;;5003836;28;20525;-43
2022/02/06 02:03:43;;;;;;;24.08;14.00;;;;;;;;;;5003739;28;20030;-44
2022/02/06 02:42:58;;;;;;;52.22;24.08;;;;;;;;;;4955248;29;20042;-44
2022/02/06 02:47:17;;;;;;;67.07;30.88;;;;;;;;;;4954882;29;20042;-45
2022/02/06 02:49:52;;;;;;;59.85;34.63;;;;;;;;;;4970480;28;20380;-46
2022/02/06 02:53:08;;;;;;;43.47;24.25;;;;;;;;;;4993474;28;20038;-44
2022/02/06 03:02:59;;;;;;;40.88;18.90;;;;;;;;;;5027270;28;19905;-46
2022/02/06 03:05:26;;;;;;;38.72;18.77;;;;;;;;;;5034622;28;20076;-46
2022/02/06 03:07:53;;;;;;;38.45;17.92;;;;;;;;;;5034874;28;20026;-44
2022/02/06 03:10:19;;;;;;;42.25;19.88;;;;;;;;;;5034535;28;20030;-44
2022/02/06 03:12:51;;;;;;;40.05;18.17;;;;;;;;;;5032900;28;20037;-47
2022/02/06 03:15:45;;;;;;;37.25;16.63;;;;;;;;;;5034463;28;20109;-44
2022/02/06 03:18:05;;;;;;;28.05;13.45;;;;;;;;;;5034440;28;20038;-45
2022/02/06 03:20:34;;;;;;;26.17;13.23;;;;;;;;;;5034240;28;20034;-46
2022/02/06 03:23:03;;;;;;;19.10;10.68;;;;;;;;;;5034311;28;20033;-44
2022/02/06 03:25:30;;;;;;;27.65;13.20;;;;;;;;;;5034424;28;20478;-45
2022/02/06 03:27:56;;;;;;;27.58;12.95;;;;;;;;;;5033895;28;20029;-45
2022/02/06 03:30:23;;;;;;;41.47;15.60;;;;;;;;;;5034197;28;20064;-44
2022/02/06 03:32:54;;;;;;;43.05;18.55;;;;;;;;;;5034132;28;20029;-44
2022/02/06 03:35:20;;;;;;;56.42;21.90;;;;;;;;;;5034044;28;20045;-46
2022/02/06 03:37:47;;;;;;;57.38;23.50;;;;;;;;;;5034231;28;20395;-45
2022/02/06 03:40:23;;;;;;;73.05;27.98;;;;;;;;;;5033866;28;20044;-48
2022/02/06 03:43:13;;;;;;;74.65;33.00;;;;;;;;;;5034064;28;20047;-44
2022/02/06 03:45:43;;;;;;;73.37;33.07;;;;;;;;;;5034073;28;20095;-46
2022/02/06 03:48:24;;;;;;;78.38;35.20;;;;;;;;;;5033817;28;20033;-46
2022/02/06 03:50:52;;;;;;;82.28;33.20;;;;;;;;;;5033609;28;20485;-45
2022/02/06 03:53:22;;;;;;;42.60;21.00;;;;;;;;;;5033940;28;20025;-46
2022/02/06 03:55:52;;;;;;;41.03;21.08;;;;;;;;;;5033724;28;20511;-45
2022/02/06 03:58:20;;;;;;;42.80;21.85;;;;;;;;;;5033868;28;20022;-45
2022/02/06 04:00:46;;;;;;;42.20;20.17;;;;;;;;;;5033613;28;20073;-45
2022/02/06 04:03:13;;;;;;;37.85;17.98;;;;;;;;;;5033535;28;20101;-46
2022/02/06 04:05:44;;;;;;;26.70;14.38;;;;;;;;;;5033437;28;20096;-47
2022/02/06 04:08:14;;;;;;;27.70;14.38;;;;;;;;;;5033619;28;20075;-44
2022/02/06 04:10:47;;;;;;;35.28;16.70;;;;;;;;;;5033638;28;20100;-45
2022/02/06 04:13:19;;;;;;;36.15;17.08;;;;;;;;;;5033627;28;20021;-52
2022/02/06 04:15:48;;;;;;;46.97;25.63;;;;;;;;;;5033430;28;20449;-44
2022/02/06 04:18:18;;;;;;;41.95;22.30;;;;;;;;;;5033452;28;20021;-47
2022/02/06 04:20:44;;;;;;;35.25;17.80;;;;;;;;;;5033506;28;20108;-44
2022/02/06 04:23:10;;;;;;;34.15;17.67;;;;;;;;;;5033415;28;20021;-46
2022/02/06 04:25:36;;;;;;;38.63;19.38;;;;;;;;;;5033699;28;20079;-46
2022/02/06 04:28:04;;;;;;;36.40;19.58;;;;;;;;;;5033144;28;20114;-47
2022/02/06 04:30:30;;;;;;;38.35;19.17;;;;;;;;;;5033715;28;20033;-46
2022/02/06 04:32:56;;;;;;;39.97;20.90;;;;;;;;;;5033009;28;20029;-46
2022/02/06 04:35:25;;;;;;;37.15;19.92;;;;;;;;;;5033032;28;20022;-46
2022/02/06 04:43:25;;;;;;;44.33;20.92;;;;;;;;;;5033418;28;20378;-47
2022/02/06 05:30:26;;;;;;;27.65;14.38;;;;;;;;;;5032906;28;20056;-47
2022/02/06 05:35:21;;;;;;;25.25;14.40;;;;;;;;;;5032718;28;20029;-45
2022/02/06 05:37:47;;;;;;;36.03;17.13;;;;;;;;;;5032511;28;20147;-44
2022/02/06 05:40:13;;;;;;;64.00;30.42;;;;;;;;;;5032341;28;20025;-45
2022/02/06 05:42:42;;;;;;;36.50;20.80;;;;;;;;;;5032445;28;20033;-44
2022/02/06 05:45:08;;;;;;;25.65;14.20;;;;;;;;;;5032462;28;20444;-44
2022/02/06 05:47:34;;;;;;;25.20;13.32;;;;;;;;;;5032396;28;20466;-44
2022/02/06 05:50:05;;;;;;;27.73;14.50;;;;;;;;;;5031344;28;20043;-47
2022/02/06 05:52:31;;;;;;;26.80;14.05;;;;;;;;;;5034484;28;20386;-45
2022/02/06 05:54:58;;;;;;;22.02;10.52;;;;;;;;;;5035989;28;20025;-47
2022/02/06 05:57:24;;;;;;;23.52;12.32;;;;;;;;;;5035931;28;20021;-45
2022/02/06 05:59:50;;;;;;;27.95;13.77;;;;;;;;;;5035944;28;20042;-45
2022/02/06 06:02:17;;;;;;;24.63;11.73;;;;;;;;;;5035910;28;20492;-45
2022/02/06 06:04:43;;;;;;;20.95;10.75;;;;;;;;;;5035882;28;20092;-45
2022/02/06 06:07:09;;;;;;;26.63;11.90;;;;;;;;;;5035767;28;20040;-44
2022/02/06 06:09:35;;;;;;;27.30;13.75;;;;;;;;;;5035613;28;20030;-47
2022/02/06 06:12:01;;;;;;;24.58;13.73;;;;;;;;;;5035669;28;20108;-47
2022/02/06 06:14:31;;;;;;;20.52;11.32;;;;;;;;;;5035773;28;20018;-47
2022/02/06 06:16:57;;;;;;;33.83;17.00;;;;;;;;;;5035704;28;20026;-46
2022/02/06 06:19:23;;;;;;;39.03;19.42;;;;;;;;;;5035521;28;20482;-47
2022/02/06 06:21:55;;;;;;;41.58;19.73;;;;;;;;;;5035526;28;20026;-47
2022/02/06 06:24:23;;;;;;;35.53;18.23;;;;;;;;;;5035439;28;20024;-46
2022/02/06 06:26:49;;;;;;;28.73;13.73;;;;;;;;;;5035646;28;20034;-47
2022/02/06 06:29:15;;;;;;;31.50;15.02;;;;;;;;;;5035256;28;20095;-47
2022/02/06 06:31:41;;;;;;;26.58;12.07;;;;;;;;;;5035494;28;20025;-47
2022/02/06 06:34:07;;;;;;;18.55;10.27;;;;;;;;;;5035454;28;20470;-46
2022/02/06 06:36:35;;;;;;;17.35;8.88;;;;;;;;;;5035263;28;20488;-47
2022/02/06 06:39:02;;;;;;;16.70;9.88;;;;;;;;;;5035048;28;20108;-48
2022/02/06 06:41:28;;;;;;;34.10;18.23;;;;;;;;;;5035132;28;20108;-47
2022/02/06 06:43:54;;;;;;;54.15;26.10;;;;;;;;;;5035041;28;20459;-47
2022/02/06 06:46:20;;;;;;;54.25;26.13;;;;;;;;;;5034966;28;20402;-44
2022/02/06 06:48:46;;;;;;;47.38;23.67;;;;;;;;;;5034984;28;20029;-44
2022/02/06 06:51:12;;;;;;;41.33;21.75;;;;;;;;;;5034764;28;20029;-46
2022/02/06 06:53:42;;;;;;;36.58;21.38;;;;;;;;;;5034714;28;20100;-44
2022/02/06 06:58:57;;;;;;;35.30;18.83;;;;;;;;;;5032364;28;20037;-45
2022/02/06 07:01:45;;;;;;;27.42;16.83;;;;;;;;;;5032497;28;20518;-45
2022/02/06 07:04:11;;;;;;;31.60;14.98;;;;;;;;;;5032079;28;20033;-45
2022/02/06 07:06:37;;;;;;;35.65;17.30;;;;;;;;;;5032326;28;20387;-44
2022/02/06 07:09:03;;;;;;;40.63;19.88;;;;;;;;;;5032524;28;20033;-46
2022/02/06 07:11:34;;;;;;;20.63;10.38;;;;;;;;;;5032243;28;20029;-44
2022/02/06 07:14:00;;;;;;;24.73;12.97;;;;;;;;;;5032609;28;20116;-46
2022/02/06 07:16:26;;;;;;;22.60;12.57;;;;;;;;;;5032455;28;20034;-45
2022/02/06 07:18:52;;;;;;;26.95;15.18;;;;;;;;;;5032203;28;20040;-45
2022/02/06 07:21:18;;;;;;;25.30;12.77;;;;;;;;;;5032089;28;20032;-45
2022/02/06 07:23:44;;;;;;;23.27;11.65;;;;;;;;;;5032151;28;20072;-45
2022/02/06 07:26:17;;;;;;;21.77;11.93;;;;;;;;;;5015266;28;20033;-45
2022/02/06 07:28:48;;;;;;;27.85;14.95;;;;;;;;;;5015072;28;20147;-44
2022/02/06 07:31:14;;;;;;;23.80;15.23;;;;;;;;;;5032128;28;20025;-44
2022/02/06 07:33:40;;;;;;;26.77;13.15;;;;;;;;;;5031914;28;20029;-46
2022/02/06 07:36:06;;;;;;;17.52;8.55;;;;;;;;;;5033227;28;20060;-45
2022/02/06 07:38:32;;;;;;;23.58;12.10;;;;;;;;;;5034345;28;20033;-43
2022/02/06 07:40:58;;;;;;;27.67;14.20;;;;;;;;;;5033900;28;20078;-45
2022/02/06 07:43:24;;;;;;;19.23;11.05;;;;;;;;;;5033896;28;20040;-45
2022/02/06 07:45:51;;;;;;;21.15;13.40;;;;;;;;;;5033974;28;20032;-47
2022/02/06 07:48:18;;;;;;;14.15;8.77;;;;;;;;;;5033595;28;20026;-45
2022/02/06 07:50:45;;;;;;;22.77;13.35;;;;;;;;;;5033864;28;20131;-45
2022/02/06 07:53:14;;;;;;;29.95;16.45;;;;;;;;;;5033514;28;20466;-44
2022/02/06 07:55:40;;;;;;;22.48;14.10;;;;;;;;;;5033580;28;20504;-45
2022/02/06 07:58:06;;;;;;;52.95;25.92;;;;;;;;;;5033863;28;20018;-46
2022/02/06 08:00:32;;;;;;;56.33;28.08;;;;;;;;;;5033461;28;20452;-47
2022/02/06 08:02:58;;;;;;;58.10;31.67;;;;;;;;;;5033349;28;20532;-46
2022/02/06 08:05:25;;;;;;;70.93;33.35;;;;;;;;;;5033384;28;20080;-46
2022/02/06 08:07:53;;;;;;;81.82;35.92;;;;;;;;;;5033361;28;20018;-46
2022/02/06 08:10:20;;;;;;;69.15;33.65;;;;;;;;;;5033427;28;20081;-46
2022/02/06 08:12:55;;;;;;;62.28;28.20;;;;;;;;;;5033309;28;20022;-46
2022/02/06 08:15:22;;;;;;;65.80;31.75;;;;;;;;;;5032832;28;20018;-45
2022/02/06 08:17:48;;;;;;;50.97;28.02;;;;;;;;;;5033378;28;20049;-45
2022/02/06 08:20:15;;;;;;;50.00;24.20;;;;;;;;;;5033463;28;20061;-47
2022/02/06 08:22:42;;;;;;;44.60;22.40;;;;;;;;;;5033102;28;20022;-46
2022/02/06 08:25:09;;;;;;;32.50;17.02;;;;;;;;;;5033086;28;20026;-46
2022/02/06 08:27:35;;;;;;;38.90;19.75;;;;;;;;;;5033142;28;20117;-48
2022/02/06 08:30:01;;;;;;;26.55;15.95;;;;;;;;;;5032944;28;20059;-48
2022/02/06 08:32:27;;;;;;;26.88;14.00;;;;;;;;;;5032972;28;20039;-48
2022/02/06 08:34:54;;;;;;;24.80;14.13;;;;;;;;;;5033059;28;20048;-48
2022/02/06 08:37:20;;;;;;;31.35;18.50;;;;;;;;;;5032960;28;20025;-48
2022/02/06 08:39:47;;;;;;;22.45;11.38;;;;;;;;;;5032941;28;20033;-48
2022/02/06 08:42:14;;;;;;;23.30;10.50;;;;;;;;;;5033220;28;20030;-48
2022/02/06 08:44:41;;;;;;;18.23;9.00;;;;;;;;;;5033028;28;20101;-47
2022/02/06 08:47:07;;;;;;;14.77;7.95;;;;;;;;;;5032840;28;20100;-49
2022/02/06 08:49:34;;;;;;;11.65;5.53;;;;;;;;;;5032960;28;20022;-48
2022/02/06 08:52:00;;;;;;;15.68;6.25;;;;;;;;;;5032859;28;20021;-48
2022/02/06 08:54:30;;;;;;;15.27;5.88;;;;;;;;;;5032826;28;20025;-49
2022/02/06 08:57:12;;;;;;;8.50;4.25;;;;;;;;;;5033001;28;20099;-49
2022/02/06 08:59:38;;;;;;;14.82;6.53;;;;;;;;;;5032772;28;20045;-48
2022/02/06 09:02:04;;;;;;;17.85;11.32;;;;;;;;;;5032633;28;20032;-48
2022/02/06 09:04:30;;;;;;;13.85;6.90;;;;;;;;;;5032753;28;20029;-49
2022/02/06 09:07:00;;;;;;;9.90;5.07;;;;;;;;;;5032714;28;20091;-48
2022/02/06 09:09:27;;;;;;;11.45;7.20;;;;;;;;;;5032806;28;20043;-49
2022/02/06 09:11:53;;;;;;;18.80;16.00;;;;;;;;;;5032778;28;20029;-48
2022/02/06 09:14:22;;;;;;;45.47;41.97;;;;;;;;;;5032821;28;20097;-48
2022/02/06 09:16:48;;;;;;;29.33;26.90;;;;;;;;;;5032621;28;20108;-48
2022/02/06 09:19:15;;;;;;;20.02;12.00;;;;;;;;;;5032546;28;20053;-47
2022/02/06 09:21:44;;;;;;;61.97;56.35;;;;;;;;;;5032430;28;20048;-49
2022/02/06 09:24:10;;;;;;;33.17;17.35;;;;;;;;;;5032667;28;20021;-50
2022/02/06 09:26:37;;;;;;;36.35;23.92;;;;;;;;;;5035329;28;20060;-50
2022/02/06 09:29:09;;;;;;;33.70;20.05;;;;;;;;;;5036203;28;20099;-49
2022/02/06 09:31:36;;;;;;;12.77;6.60;;;;;;;;;;5036418;28;20104;-50
2022/02/06 09:36:29;;;;;;;14.25;7.75;;;;;;;;;;5036696;28;20029;-49
2022/02/06 09:38:55;;;;;;;17.95;8.32;;;;;;;;;;5036197;28;20026;-49
2022/02/06 09:41:21;;;;;;;13.68;7.43;;;;;;;;;;5036180;28;20470;-48
2022/02/06 09:43:50;;;;;;;13.45;5.95;;;;;;;;;;5035943;28;20029;-47
2022/02/06 09:46:16;;;;;;;11.43;6.13;;;;;;;;;;5036137;28;20163;-48
2022/02/06 09:48:44;;;;;;;10.05;4.65;;;;;;;;;;5036306;28;20021;-49
2022/02/06 09:51:10;;;;;;;8.77;4.80;;;;;;;;;;5043417;28;20033;-48
2022/02/06 09:53:38;;;;;;;28.83;11.15;;;;;;;;;;5055909;28;20491;-48
2022/02/06 09:56:08;;;;;;;8.23;3.60;;;;;;;;;;5055722;28;20029;-48
2022/02/06 10:01:08;;;;;;;9.75;5.40;;;;;;;;;;5056021;28;20045;-47
2022/02/06 10:03:39;;;;;;;11.80;4.32;;;;;;;;;;5055733;28;20079;-49
2022/02/06 10:06:06;;;;;;;23.43;10.70;;;;;;;;;;5055751;28;20481;-50
2022/02/06 10:08:36;;;;;;;10.85;5.78;;;;;;;;;;5056079;28;20071;-48
2022/02/06 10:11:02;;;;;;;9.13;4.88;;;;;;;;;;5055661;28;20029;-49
2022/02/06 10:13:30;;;;;;;14.55;5.68;;;;;;;;;;5055606;28;20029;-49
2022/02/06 10:15:56;;;;;;;7.05;3.35;;;;;;;;;;5055853;28;20040;-49
2022/02/06 10:18:23;;;;;;;13.07;4.72;;;;;;;;;;5055501;28;20025;-49
2022/02/06 10:20:49;;;;;;;20.98;7.45;;;;;;;;;;5055481;28;20040;-49
2022/02/06 10:23:29;;;;;;;10.98;4.15;;;;;;;;;;5055446;28;20028;-48
2022/02/06 10:26:05;;;;;;;14.50;5.07;;;;;;;;;;5055373;28;20032;-49
2022/02/06 10:30:58;;;;;;;12.60;3.58;;;;;;;;;;5055162;28;20121;-49
2022/02/06 10:33:41;;;;;;;8.98;4.75;;;;;;;;;;5055257;28;20032;-48
2022/02/06 10:36:07;;;;;;;4.35;2.13;;;;;;;;;;5055235;28;20036;-47
2022/02/06 10:38:33;;;;;;;7.03;3.85;;;;;;;;;;5054356;28;20113;-48
2022/02/06 10:41:06;;;;;;;9.38;4.03;;;;;;;;;;5055041;28;20029;-50
2022/02/06 10:43:32;;;;;;;12.02;4.78;;;;;;;;;;5054998;28;20040;-50
2022/02/06 10:46:12;;;;;;;11.50;5.15;;;;;;;;;;5054986;28;20083;-48
2022/02/06 10:48:45;;;;;;;19.42;8.20;;;;;;;;;;5055124;28;20029;-48
2022/02/06 10:51:31;;;;;;;8.57;3.47;;;;;;;;;;5054735;28;20032;-46
2022/02/06 10:54:01;;;;;;;4.90;2.90;;;;;;;;;;5054801;28;20377;-47
2022/02/06 10:56:30;;;;;;;8.77;4.40;;;;;;;;;;5055027;28;20021;-48
2022/02/06 10:59:03;;;;;;;16.23;8.40;;;;;;;;;;5054622;28;20037;-47
2022/02/06 11:01:31;;;;;;;17.08;8.27;;;;;;;;;;5055154;28;20049;-47
2022/02/06 11:04:16;;;;;;;9.52;3.45;;;;;;;;;;5054711;28;20024;-47
2022/02/06 11:06:45;;;;;;;11.60;5.10;;;;;;;;;;5054770;28;20074;-49
2022/02/06 11:09:27;;;;;;;9.32;3.88;;;;;;;;;;5054735;28;20437;-48
2022/02/06 11:11:56;;;;;;;11.00;5.07;;;;;;;;;;5054518;28;20029;-49
2022/02/06 11:14:25;;;;;;;15.30;5.97;;;;;;;;;;5054280;28;20051;-48
2022/02/06 11:16:51;;;;;;;11.82;5.10;;;;;;;;;;5054316;28;20358;-49
2022/02/06 11:19:19;;;;;;;12.80;5.00;;;;;;;;;;5054552;28;20091;-49
2022/02/06 11:21:45;;;;;;;13.13;5.57;;;;;;;;;;5054518;28;20040;-47
2022/02/06 11:24:19;;;;;;;12.27;5.93;;;;;;;;;;5054304;28;20373;-48
2022/02/06 11:26:45;;;;;;;15.40;6.35;;;;;;;;;;5054285;28;20083;-47
2022/02/06 11:29:12;;;;;;;8.77;3.67;;;;;;;;;;5053951;28;20140;-48
2022/02/06 11:31:39;;;;;;;14.15;6.43;;;;;;;;;;5054074;28;20481;-48
2022/02/06 11:34:05;;;;;;;35.47;11.70;;;;;;;;;;5053970;28;20032;-47
2022/02/06 11:45:19;;;;;;;26.83;7.38;;;;;;;;;;5021166;28;20192;-47
2022/02/06 11:47:51;;;;;;;24.13;7.72;;;;;;;;;;5020130;28;20052;-47
2022/02/06 11:50:17;;;;;;;;;;;;;;;;;;5020048;28;20040;-47
2022/02/06 11:52:49;;;;;;;30.42;10.93;;;;;;;;;;5020936;28;20335;-47
2022/02/06 11:55:33;;;;;;;38.33;14.00;;;;;;;;;;5019999;28;20519;-47
2022/02/06 11:58:18;;;;;;;43.00;12.52;;;;;;;;;;5021692;28;20041;-47
2022/02/06 12:00:44;;;;;;;15.90;5.10;;;;;;;;;;5020176;28;20074;-47
2022/02/06 12:03:14;;;;;;;15.25;4.93;;;;;;;;;;5020663;28;20395;-48
2022/02/06 12:05:59;;;;;;;20.35;7.85;;;;;;;;;;5020619;28;20025;-47
2022/02/06 12:08:25;;;;;;;18.88;6.80;;;;;;;;;;5020601;28;20463;-50
2022/02/06 12:10:51;;;;;;;13.80;5.03;;;;;;;;;;5021120;28;20033;-47
2022/02/06 12:13:23;;;;;;;12.13;5.15;;;;;;;;;;5020699;28;21059;-47
2022/02/06 12:15:50;;;;;;;14.30;5.43;;;;;;;;;;5018349;28;20457;-47
2022/02/06 12:18:32;;;;;;;8.13;3.53;;;;;;;;;;5017333;28;20082;-47
2022/02/06 12:21:15;;;;;;;8.60;3.83;;;;;;;;;;5017461;28;20045;-47
2022/02/06 12:23:42;;;;;;;13.63;5.93;;;;;;;;;;5016759;28;20017;-48
2022/02/06 12:26:28;;;;;;;10.60;5.05;;;;;;;;;;5017429;28;20022;-47
2022/02/06 12:28:55;;;;;;;10.75;3.55;;;;;;;;;;5017124;28;20080;-47
2022/02/06 12:31:28;;;;;;;16.27;6.68;;;;;;;;;;5017677;28;20415;-47
2022/02/06 12:39:32;;;;;;;8.43;4.07;;;;;;;;;;5016781;28;20049;-47
2022/02/06 12:41:59;;;;;;;5.53;3.38;;;;;;;;;;5017306;28;20773;-47
2022/02/06 12:44:26;;;;;;;8.63;4.50;;;;;;;;;;5017250;28;20275;-47
2022/02/06 12:46:52;;;;;;;10.05;4.97;;;;;;;;;;5017038;28;20048;-47
2022/02/06 12:49:27;;;;;;;7.65;4.78;;;;;;;;;;5016934;28;20087;-48
2022/02/06 12:51:57;;;;;;;12.93;6.80;;;;;;;;;;5016836;28;20032;-47
2022/02/06 12:54:23;;;;;;;5.03;3.00;;;;;;;;;;5016658;28;20029;-48
2022/02/06 12:56:50;;;;;;;3.25;2.35;;;;;;;;;;5017436;28;20037;-47
2022/02/06 12:59:21;;;;;;;5.35;3.40;;;;;;;;;;5016983;28;20025;-48
2022/02/06 13:01:48;;;;;;;3.78;2.28;;;;;;;;;;5020079;28;20527;-47
2022/02/06 13:04:18;;;;;;;4.47;3.20;;;;;;;;;;5020872;28;20075;-49
2022/02/06 13:06:46;;;;;;;11.40;6.03;;;;;;;;;;5021095;28;20068;-47
2022/02/06 13:09:31;;;;;;;7.45;3.13;;;;;;;;;;5020734;28;20439;-47
2022/02/06 13:12:08;;;;;;;15.20;6.40;;;;;;;;;;5020902;28;20508;-47
2022/02/06 13:18:25;;;;;;;35.65;19.70;;;;;;;;;;5020740;28;20040;-47
2022/02/06 13:38:43;;;;;;;26.48;9.88;;;;;;;;;;5020302;28;20029;-46
2022/02/06 13:41:14;;;;;;;38.20;11.38;;;;;;;;;;5019901;28;20174;-47
2022/02/06 13:43:41;;;;;;;63.10;20.45;;;;;;;;;;5020343;28;21020;-46
2022/02/06 13:46:17;;;;;;;10.40;5.68;;;;;;;;;;5019921;28;20454;-46
2022/02/06 13:48:47;;;;;;;15.80;7.15;;;;;;;;;;5020307;28;20021;-46
2022/02/06 13:51:13;;;;;;;16.75;6.18;;;;;;;;;;5020354;28;20079;-46
2022/02/06 13:53:40;;;;;;;12.85;6.07;;;;;;;;;;5020016;28;20029;-47
2022/02/06 13:56:13;;;;;;;62.90;20.50;;;;;;;;;;5020384;28;20022;-46
2022/02/06 13:58:39;;;;;;;41.22;14.50;;;;;;;;;;5019774;28;20039;-46
2022/02/06 14:01:06;;;;;;;32.28;14.93;;;;;;;;;;5019619;28;20202;-45
2022/02/06 14:03:42;;;;;;;33.75;15.20;;;;;;;;;;5019825;28;20316;-46
2022/02/06 14:06:08;;;;;;;23.90;10.98;;;;;;;;;;5019835;28;20026;-46
2022/02/06 14:08:37;;;;;;;21.88;10.00;;;;;;;;;;5019832;28;20029;-46
2022/02/06 14:11:09;;;;;;;29.60;13.10;;;;;;;;;;5019830;28;20434;-46
2022/02/06 14:13:37;;;;;;;34.65;16.42;;;;;;;;;;5018366;28;20410;-46
2022/02/06 14:16:17;;;;;;;34.95;16.73;;;;;;;;;;5020103;28;20025;-46
2022/02/06 14:18:51;;;;;;;10.68;5.78;;;;;;;;;;5019338;28;20626;-46
2022/02/06 14:21:18;;;;;;;26.10;13.77;;;;;;;;;;5019609;28;20068;-46
2022/02/06 14:23:49;;;;;;;9.68;5.65;;;;;;;;;;5019794;28;20029;-46
2022/02/06 14:26:18;;;;;;;7.83;4.77;;;;;;;;;;5019443;28;20032;-46
2022/02/06 14:28:49;;;;;;;8.73;4.50;;;;;;;;;;5018892;28;20102;-46
2022/02/06 14:31:43;;;;;;;8.82;5.03;;;;;;;;;;5019560;28;20086;-46
2022/02/06 14:34:15;;;;;;;13.45;6.68;;;;;;;;;;5017633;28;20030;-46
2022/02/06 14:36:43;;;;;;;13.35;7.32;;;;;;;;;;5019366;28;20049;-46
2022/02/06 14:39:10;;;;;;;7.82;4.47;;;;;;;;;;5019016;28;20541;-47
2022/02/06 14:41:59;;;;;;;13.75;6.22;;;;;;;;;;5019679;28;20717;-45
2022/02/06 14:44:26;;;;;;;21.93;11.13;;;;;;;;;;5018896;28;20144;-46
2022/02/06 14:46:53;;;;;;;18.00;8.05;;;;;;;;;;5018821;28;20382;-46
2022/02/06 14:49:19;;;;;;;24.92;12.43;;;;;;;;;;5018904;28;20090;-45
2022/02/06 14:51:47;;;;;;;20.20;11.05;;;;;;;;;;5018634;28;20029;-51
2022/02/06 14:54:20;;;;;;;27.27;14.27;;;;;;;;;;5018909;28;20717;-51
2022/02/06 14:56:48;;;;;;;31.27;16.02;;;;;;;;;;5019117;28;20072;-53
2022/02/06 14:59:15;;;;;;;23.63;12.50;;;;;;;;;;5018706;28;21072;-55
2022/02/06 15:01:41;;;;;;;27.40;15.57;;;;;;;;;;5018938;28;20033;-52
2022/02/06 15:04:09;;;;;;;47.30;26.55;;;;;;;;;;5018670;28;20029;-53
2022/02/06 15:06:35;;;;;;;68.32;34.95;;;;;;;;;;5018422;28;20169;-53
2022/02/06 15:09:01;;;;;;;55.67;30.02;;;;;;;;;;5019101;28;20028;-53
2022/02/06 15:11:27;;;;;;;49.03;23.95;;;;;;;;;;5018621;28;20044;-51
2022/02/06 15:13:53;;;;;;;36.13;19.05;;;;;;;;;;5018919;28;20668;-52
2022/02/06 15:16:24;;;;;;;52.38;28.70;;;;;;;;;;5017319;28;20033;-52
2022/02/06 15:19:14;;;;;;;54.42;32.05;;;;;;;;;;5020030;28;20040;-54
2022/02/06 15:21:40;;;;;;;32.00;17.35;;;;;;;;;;5019777;28;20033;-52
2022/02/06 15:24:06;;;;;;;36.33;19.08;;;;;;;;;;5017770;28;20067;-51
2022/02/06 15:26:33;;;;;;;29.55;17.90;;;;;;;;;;5018446;28;20057;-52
2022/02/06 15:28:59;;;;;;;29.10;17.67;;;;;;;;;;5018201;28;20045;-54
2022/02/06 15:31:25;;;;;;;29.73;15.50;;;;;;;;;;5018141;28;20069;-52
2022/02/06 15:33:52;;;;;;;28.23;15.48;;;;;;;;;;5019446;28;20025;-55
2022/02/06 15:36:19;;;;;;;23.02;14.40;;;;;;;;;;5019937;28;20017;-51
2022/02/06 15:38:47;;;;;;;31.38;17.73;;;;;;;;;;5019821;28;20696;-47
2022/02/06 15:41:15;;;;;;;28.77;16.45;;;;;;;;;;5018430;28;20034;-53
2022/02/06 15:43:41;;;;;;;26.33;13.82;;;;;;;;;;5018949;28;20025;-54
2022/02/06 15:46:07;;;;;;;42.65;23.45;;;;;;;;;;5019677;28;20029;-47
2022/02/06 15:48:33;;;;;;;35.90;19.25;;;;;;;;;;5018335;28;20032;-49
2022/02/06 15:50:59;;;;;;;39.17;20.33;;;;;;;;;;5017763;28;20047;-53
2022/02/06 15:53:25;;;;;;;48.60;26.00;;;;;;;;;;5027081;28;20021;-51
2022/02/06 15:55:51;;;;;;;46.13;21.52;;;;;;;;;;5034171;28;20026;-50
2022/02/06 15:58:18;;;;;;;41.67;20.48;;;;;;;;;;5033990;28;20151;-50
2022/02/06 16:00:44;;;;;;;36.60;19.58;;;;;;;;;;5033832;28;20033;-49
2022/02/06 16:03:10;;;;;;;35.60;18.50;;;;;;;;;;5033816;28;20064;-50
2022/02/06 16:05:36;;;;;;;34.00;17.83;;;;;;;;;;5033802;28;20432;-50
2022/02/06 16:08:02;;;;;;;43.05;21.10;;;;;;;;;;5033670;28;20052;-49
2022/02/06 16:10:28;;;;;;;35.65;19.55;;;;;;;;;;5033629;28;20022;-48
2022/02/06 16:12:54;;;;;;;53.50;27.60;;;;;;;;;;5033803;28;20025;-49
2022/02/06 16:15:20;;;;;;;51.47;26.80;;;;;;;;;;5033592;28;20036;-50
2022/02/06 16:17:46;;;;;;;53.33;26.10;;;;;;;;;;5033744;28;20441;-48
2022/02/06 16:20:14;;;;;;;64.10;33.60;;;;;;;;;;5033423;28;20037;-48
2022/02/06 16:22:43;;;;;;;78.32;30.73;;;;;;;;;;5033721;28;20049;-47
2022/02/06 16:25:09;;;;;;;88.45;35.85;;;;;;;;;;5031440;28;20036;-54
2022/02/06 16:27:35;;;;;;;78.78;35.08;;;;;;;;;;5018421;28;20036;-52
2022/02/06 16:30:01;;;;;;;81.85;36.95;;;;;;;;;;5017137;28;20053;-51
2022/02/06 16:32:28;;;;;;;82.57;38.75;;;;;;;;;;5017639;28;20024;-48
2022/02/06 16:34:54;;;;;;;76.15;34.05;;;;;;;;;;5016701;28;20152;-53
2022/02/06 16:37:21;;;;;;;63.78;29.60;;;;;;;;;;5017032;28;20800;-52
2022/02/06 16:39:47;;;;;;;75.78;35.88;;;;;;;;;;5016943;28;20018;-52
2022/02/06 16:42:15;;;;;;;55.33;24.20;;;;;;;;;;5017329;28;20077;-49
2022/02/06 16:44:42;;;;;;;58.13;27.17;;;;;;;;;;5017742;28;20029;-50
2022/02/06 16:47:08;;;;;;;71.00;36.30;;;;;;;;;;5017166;28;20033;-48
2022/02/06 16:49:35;;;;;;;56.85;31.80;;;;;;;;;;5017254;28;20583;-53
2022/02/06 16:52:01;;;;;;;53.08;30.42;;;;;;;;;;5017184;28;20026;-53
2022/02/06 16:54:27;;;;;;;62.60;34.15;;;;;;;;;;5017617;28;20027;-53
2022/02/06 16:56:53;;;;;;;80.88;43.58;;;;;;;;;;5016993;28;20043;-51
2022/02/06 16:59:19;;;;;;;101.03;54.65;;;;;;;;;;5017219;28;20128;-53
2022/02/06 17:01:48;;;;;;;70.18;42.55;;;;;;;;;;5016358;28;20378;-52
2022/02/06 17:04:15;;;;;;;59.47;35.42;;;;;;;;;;5017058;28;20377;-53
2022/02/06 17:06:41;;;;;;;86.20;47.75;;;;;;;;;;5016914;28;20029;-52
2022/02/06 17:09:10;;;;;;;57.95;36.22;;;;;;;;;;5017126;28;20128;-53
2022/02/06 17:11:37;;;;;;;53.45;35.92;;;;;;;;;;5016386;28;20436;-54
2022/02/06 17:14:04;;;;;;;43.47;29.45;;;;;;;;;;5016926;28;20560;-54
2022/02/06 17:16:30;;;;;;;32.08;22.20;;;;;;;;;;5016698;28;20033;-51
2022/02/06 17:18:56;;;;;;;58.03;37.88;;;;;;;;;;5017242;28;20370;-50
2022/02/06 17:21:22;;;;;;;77.88;44.05;;;;;;;;;;5016389;28;20354;-51
2022/02/06 17:23:48;;;;;;;48.90;28.65;;;;;;;;;;5016884;28;20029;-50
2022/02/06 17:26:14;;;;;;;34.08;18.65;;;;;;;;;;5016976;28;20032;-48
2022/02/06 17:28:40;;;;;;;69.93;38.65;;;;;;;;;;5016230;28;20053;-51
2022/02/06 17:31:06;;;;;;;29.55;15.55;;;;;;;;;;5016750;28;20040;-52